Terminal Aerodrome Forecast
Issued by NWS

Home | Current Version | Previous Version | Text Only | Print | Product List | Glossary On
Versions: 1 2 3 4 5 6 7 8 9 10 11 12 13 14 15 16 17 18 19 20 21 22 23 24 25 26 27 28
000
FTAK31 PANC 010057 AAA
TAFAIL
TAF AMD
PAIL 010057Z 0101/0124 10008KT P6SM SCT025 BKN060
     FM010600 04007KT P6SM VCSH SCT040 BKN070
     FM012000 13007KT P6SM -SHRA SCT040 OVC060=

USA.gov is the U.S. government's official web portal to all federal, state and local government web resources and services.